createdAt,value
2019-02-27T00:01:01.411Z,4.00
2019-02-27T00:03:30.484Z,4.04
2019-02-27T00:05:59.650Z,4.06
2019-02-27T00:08:28.694Z,4.13
2019-02-27T00:10:57.793Z,4.12
2019-02-27T00:13:26.871Z,4.02
2019-02-27T00:15:55.969Z,4.06
2019-02-27T00:18:25.043Z,4.02
2019-02-27T00:20:54.136Z,3.96
2019-02-27T00:23:24.203Z,4.04
2019-02-27T00:25:53.681Z,3.97
2019-02-27T00:28:23.357Z,4.10
2019-02-27T00:30:53.042Z,4.24
2019-02-27T00:33:25.040Z,4.05
2019-02-27T00:35:52.938Z,3.97
2019-02-27T00:38:22.755Z,3.85
2019-02-27T00:40:52.856Z,4.15
2019-02-27T00:43:21.932Z,4.18
2019-02-27T00:45:51.030Z,3.78
2019-02-27T00:48:20.101Z,3.55
2019-02-27T00:50:49.207Z,3.45
2019-02-27T00:53:18.279Z,3.54
2019-02-27T00:55:47.369Z,3.52
2019-02-27T00:58:16.448Z,3.34
2019-02-27T01:00:45.545Z,3.44
2019-02-27T01:03:14.622Z,3.47
2019-02-27T01:05:43.926Z,3.39
2019-02-27T01:08:13.025Z,3.35
2019-02-27T01:10:42.847Z,3.56
2019-02-27T01:13:12.922Z,3.48
2019-02-27T01:15:44.686Z,3.33
2019-02-27T01:18:12.813Z,3.16
2019-02-27T01:20:45.546Z,3.08
2019-02-27T01:23:12.703Z,2.98
2019-02-27T01:25:41.778Z,2.90
2019-02-27T01:28:11.611Z,2.89
2019-02-27T01:30:40.756Z,2.80
2019-02-27T01:33:09.824Z,2.85
2019-02-27T01:35:38.903Z,2.76
2019-02-27T01:38:08.001Z,2.78
2019-02-27T01:40:37.079Z,2.84
2019-02-27T01:43:06.496Z,2.76
2019-02-27T01:45:35.807Z,2.70
2019-02-27T01:48:08.926Z,2.69
2019-02-27T01:50:38.868Z,2.71
2019-02-27T01:53:09.120Z,2.71
2019-02-27T01:55:39.481Z,2.69
2019-02-27T01:58:09.583Z,2.63
2019-02-27T02:00:39.343Z,2.73
2019-02-27T02:03:08.433Z,2.75
2019-02-27T02:05:37.526Z,2.70
2019-02-27T02:08:13.488Z,2.79
2019-02-27T02:10:39.407Z,2.70
2019-02-27T02:13:20.936Z,2.69
2019-02-27T02:16:12.739Z,2.81
2019-02-27T02:19:10.657Z,2.72
2019-02-27T02:22:17.267Z,2.87
2019-02-27T02:25:34.926Z,2.91
2019-02-27T02:28:21.894Z,2.94
2019-02-27T02:31:24.374Z,2.78
2019-02-27T02:34:33.417Z,2.61
2019-02-27T02:37:53.277Z,2.51
2019-02-27T02:40:33.635Z,2.44
2019-02-27T02:43:29.286Z,2.56
2019-02-27T02:46:08.517Z,2.46
2019-02-27T02:49:15.355Z,2.47
2019-02-27T02:52:19.130Z,2.50
2019-02-27T02:55:03.867Z,2.30
2019-02-27T02:58:12.217Z,2.48
2019-02-27T03:01:21.181Z,2.39
2019-02-27T03:04:29.979Z,2.47
2019-02-27T03:07:45.655Z,2.47
2019-02-27T03:10:32.441Z,2.52
2019-02-27T03:13:41.952Z,2.40
2019-02-27T03:16:58.245Z,2.39
2019-02-27T03:19:45.076Z,2.25
2019-02-27T03:22:43.234Z,2.27
2019-02-27T03:25:25.486Z,2.32
2019-02-27T03:28:40.922Z,2.18
2019-02-27T03:31:43.511Z,2.20
2019-02-27T03:35:05.312Z,2.15
2019-02-27T03:38:06.075Z,2.22
2019-02-27T03:41:13.805Z,2.23
2019-02-27T03:44:25.703Z,2.19
2019-02-27T03:47:34.616Z,2.15
2019-02-27T03:50:24.454Z,2.15
2019-02-27T03:53:23.813Z,2.07
2019-02-27T03:56:21.939Z,1.93
2019-02-27T03:59:26.481Z,1.92
2019-02-27T04:02:42.023Z,1.89
2019-02-27T04:05:26.238Z,1.90
2019-02-27T04:08:51.010Z,2.06
2019-02-27T04:11:20.108Z,1.84
2019-02-27T04:13:49.184Z,1.93
2019-02-27T04:16:18.283Z,1.89
2019-02-27T04:18:47.369Z,1.88
2019-02-27T04:21:16.550Z,1.81
2019-02-27T04:23:48.985Z,1.85
2019-02-27T04:26:19.208Z,1.93
2019-02-27T04:28:47.331Z,1.92
2019-02-27T04:31:16.448Z,1.99
2019-02-27T04:33:45.520Z,1.91
2019-02-27T04:36:14.634Z,1.86
2019-02-27T04:38:43.712Z,1.81
2019-02-27T04:41:13.132Z,1.91
2019-02-27T04:43:42.212Z,1.97
2019-02-27T04:46:11.310Z,1.82
2019-02-27T04:48:40.386Z,1.95
2019-02-27T04:51:09.476Z,1.81
2019-02-27T04:53:40.649Z,1.88
2019-02-27T04:56:09.400Z,1.89
2019-02-27T04:58:42.800Z,1.90
2019-02-27T05:01:09.306Z,1.90
2019-02-27T05:03:38.381Z,1.78
2019-02-27T05:06:07.504Z,1.66
2019-02-27T05:08:36.574Z,1.66
2019-02-27T05:11:05.678Z,1.68
2019-02-27T05:13:34.754Z,1.51
2019-02-27T05:16:03.856Z,1.49
2019-02-27T05:18:32.929Z,1.62
2019-02-27T05:21:02.215Z,1.47
2019-02-27T05:23:33.538Z,1.40
2019-02-27T05:26:02.095Z,1.39
2019-02-27T05:28:32.110Z,1.32
2019-02-27T05:31:02.026Z,1.22
2019-02-27T05:33:35.699Z,1.63
2019-02-27T05:36:02.005Z,1.59
2019-02-27T05:38:31.114Z,1.60
2019-02-27T05:41:00.631Z,1.64
2019-02-27T05:43:29.662Z,1.46
2019-02-27T05:46:02.776Z,1.52
2019-02-27T05:48:29.557Z,1.45
2019-02-27T05:50:58.637Z,1.30
2019-02-27T05:53:27.734Z,1.36
2019-02-27T05:55:58.486Z,1.28
2019-02-27T05:58:27.681Z,1.31
2019-02-27T06:00:56.752Z,1.33
2019-02-27T06:03:25.850Z,1.32
2019-02-27T06:05:54.969Z,1.25
2019-02-27T06:08:24.097Z,1.12
2019-02-27T06:10:56.047Z,1.16
2019-02-27T06:13:24.020Z,1.20
2019-02-27T06:15:53.108Z,1.20
2019-02-27T06:18:23.398Z,1.20
2019-02-27T06:20:52.753Z,1.36
2019-02-27T06:23:21.851Z,1.35
2019-02-27T06:25:50.934Z,1.28
2019-02-27T06:28:20.042Z,1.52
2019-02-27T06:30:49.126Z,1.47
2019-02-27T06:33:18.227Z,1.56
2019-02-27T06:35:49.335Z,1.54
2019-02-27T06:38:18.145Z,1.62
2019-02-27T06:40:47.217Z,1.77
2019-02-27T06:43:16.312Z,2.21
2019-02-27T06:45:46.557Z,2.27
2019-02-27T06:48:15.760Z,2.32
2019-02-27T06:50:44.838Z,2.28
2019-02-27T06:53:16.474Z,2.30
2019-02-27T06:55:44.740Z,2.57
2019-02-27T06:58:14.818Z,3.38
2019-02-27T07:00:44.493Z,3.62
2019-02-27T07:03:13.576Z,3.74
2019-02-27T07:05:42.672Z,3.83
2019-02-27T07:08:11.767Z,3.75
2019-02-27T07:10:40.878Z,3.74
2019-02-27T07:13:09.955Z,3.80
2019-02-27T07:15:39.058Z,3.76
2019-02-27T07:18:08.141Z,3.72
2019-02-27T07:20:37.241Z,3.79
2019-02-27T07:23:06.318Z,3.76
2019-02-27T07:25:35.423Z,3.69
2019-02-27T07:28:08.411Z,3.78
2019-02-27T07:30:35.317Z,5.55
2019-02-27T07:33:06.758Z,9.78
2019-02-27T07:35:35.217Z,14.80
2019-02-27T07:38:04.307Z,15.56
2019-02-27T07:40:33.419Z,16.33
2019-02-27T07:43:03.358Z,19.51
2019-02-27T07:45:33.327Z,19.51
2019-02-27T07:48:02.405Z,21.09
2019-02-27T07:50:32.576Z,22.51
2019-02-27T07:53:01.777Z,24.56
2019-02-27T07:55:30.884Z,23.94
2019-02-27T07:57:59.962Z,24.70
2019-02-27T08:00:29.070Z,24.80
2019-02-27T08:02:58.155Z,23.97
2019-02-27T08:05:29.066Z,23.79
2019-02-27T08:07:58.254Z,26.55
2019-02-27T08:10:27.360Z,26.55
2019-02-27T08:12:56.817Z,28.31
2019-02-27T08:15:25.928Z,27.87
2019-02-27T08:17:57.806Z,28.66
2019-02-27T08:20:25.826Z,29.99
2019-02-27T08:22:54.906Z,32.00
2019-02-27T08:25:24.003Z,31.19
2019-02-27T08:27:54.249Z,31.46
2019-02-27T08:30:23.488Z,31.42
2019-02-27T08:32:52.571Z,31.70
2019-02-27T08:35:21.660Z,31.97
2019-02-27T08:37:50.768Z,30.04
2019-02-27T08:40:24.354Z,31.28
2019-02-27T08:42:50.681Z,33.07
2019-02-27T08:45:20.571Z,35.09
2019-02-27T08:47:49.858Z,34.94
2019-02-27T08:50:18.946Z,29.31
2019-02-27T08:52:51.549Z,29.44
2019-02-27T08:55:22.074Z,25.00
2019-02-27T08:57:50.084Z,25.99
2019-02-27T09:02:52.702Z,29.43
2019-02-27T09:05:21.827Z,32.02
2019-02-27T09:07:50.954Z,33.59
2019-02-27T09:10:20.080Z,32.58
2019-02-27T09:12:51.667Z,31.12
2019-02-27T09:15:20.094Z,25.31
2019-02-27T09:17:49.197Z,25.62
2019-02-27T09:20:19.797Z,24.36
2019-02-27T09:22:49.158Z,22.74
2019-02-27T09:25:23.409Z,24.62
2019-02-27T09:27:49.159Z,26.18
2019-02-27T09:30:18.376Z,27.97
2019-02-27T09:32:47.481Z,28.58
2019-02-27T09:35:16.561Z,26.41
2019-02-27T09:37:48.245Z,23.71
2019-02-27T09:40:17.682Z,25.89
2019-02-27T09:42:46.784Z,26.95
2019-02-27T09:45:27.202Z,24.23
2019-02-27T09:47:59.504Z,24.60
2019-02-27T09:50:34.862Z,26.90
2019-02-27T09:53:04.455Z,23.79
2019-02-27T09:55:33.531Z,24.26
2019-02-27T09:58:02.649Z,26.29
2019-02-27T10:00:36.182Z,24.97
2019-02-27T10:03:05.388Z,26.39
2019-02-27T10:05:36.761Z,27.78
2019-02-27T10:08:07.500Z,28.10
2019-02-27T10:10:36.554Z,32.23
2019-02-27T10:13:05.658Z,28.80
2019-02-27T10:15:34.733Z,29.41
2019-02-27T10:18:03.844Z,28.61
2019-02-27T10:20:37.022Z,30.21
2019-02-27T10:23:03.767Z,34.28
2019-02-27T10:25:32.843Z,36.13
2019-02-27T10:28:04.330Z,34.42
2019-02-27T10:30:32.763Z,32.11
2019-02-27T10:33:03.406Z,30.61
2019-02-27T10:35:34.705Z,33.69
2019-02-27T10:38:03.571Z,33.25
2019-02-27T10:40:32.646Z,34.06
2019-02-27T10:43:01.734Z,33.91
2019-02-27T10:45:30.838Z,36.64
2019-02-27T10:47:59.920Z,34.01
2019-02-27T10:50:29.030Z,33.98
2019-02-27T10:52:58.110Z,34.35
2019-02-27T10:55:27.293Z,32.37
2019-02-27T10:57:56.397Z,36.50
2019-02-27T11:00:32.385Z,39.11
2019-02-27T11:03:01.493Z,36.05
2019-02-27T11:05:31.336Z,37.45
2019-02-27T11:08:00.436Z,39.53
2019-02-27T11:10:29.531Z,36.30
2019-02-27T11:12:58.607Z,35.65
2019-02-27T11:15:27.706Z,36.87
2019-02-27T11:17:56.808Z,32.83
2019-02-27T11:20:25.904Z,35.75
2019-02-27T11:22:54.973Z,35.08
2019-02-27T11:25:24.234Z,36.01
2019-02-27T11:27:53.325Z,36.02
2019-02-27T11:30:27.730Z,35.85
2019-02-27T11:32:57.856Z,35.21
2019-02-27T11:35:27.090Z,35.45
2019-02-27T11:37:56.166Z,37.94
2019-02-27T11:40:25.285Z,34.83
2019-02-27T11:42:54.370Z,35.71
2019-02-27T11:45:24.669Z,35.78
2019-02-27T11:47:53.920Z,37.11
2019-02-27T11:50:23.029Z,36.72
2019-02-27T11:52:52.380Z,35.02
2019-02-27T11:55:21.602Z,37.90
2019-02-27T11:57:50.700Z,37.05
2019-02-27T12:00:26.119Z,38.22
2019-02-27T12:02:55.231Z,38.38
2019-02-27T12:05:24.332Z,36.36
2019-02-27T12:07:53.446Z,37.59
2019-02-27T12:10:23.983Z,38.52
2019-02-27T12:12:53.077Z,38.35
2019-02-27T12:15:22.276Z,36.99
2019-02-27T12:17:51.382Z,38.01
2019-02-27T12:20:21.435Z,35.88
2019-02-27T12:22:50.541Z,35.38
2019-02-27T12:25:20.192Z,35.76
2019-02-27T12:27:51.997Z,34.51
2019-02-27T12:30:21.174Z,36.62
2019-02-27T12:32:50.286Z,33.23
2019-02-27T12:35:27.428Z,35.53
2019-02-27T12:37:56.523Z,37.97
2019-02-27T12:40:25.602Z,35.71
2019-02-27T12:42:54.739Z,34.98
2019-02-27T12:45:25.833Z,37.22
2019-02-27T12:47:55.650Z,36.78
2019-02-27T12:50:26.877Z,36.88
2019-02-27T12:52:55.777Z,36.38
2019-02-27T12:55:25.163Z,37.31
2019-02-27T12:57:54.254Z,34.00
2019-02-27T13:00:25.511Z,35.87
2019-02-27T13:02:54.610Z,35.85
2019-02-27T13:05:26.421Z,36.45
2019-02-27T13:07:54.535Z,35.43
2019-02-27T13:10:23.643Z,36.29
2019-02-27T13:12:52.741Z,36.46
2019-02-27T13:15:22.524Z,35.53
2019-02-27T13:17:56.160Z,36.43
2019-02-27T13:20:23.870Z,35.74
2019-02-27T13:22:53.003Z,35.27
2019-02-27T13:25:24.238Z,36.27
2019-02-27T13:27:53.212Z,35.44
2019-02-27T13:30:22.409Z,35.18
2019-02-27T13:32:51.511Z,37.55
2019-02-27T13:35:23.251Z,35.57
2019-02-27T13:37:51.601Z,34.72
2019-02-27T13:40:20.808Z,36.52
2019-02-27T13:42:52.375Z,35.29
2019-02-27T13:45:22.406Z,33.95
2019-02-27T13:47:51.506Z,36.15
2019-02-27T13:50:24.445Z,35.31
2019-02-27T13:52:51.418Z,35.46
2019-02-27T13:55:20.819Z,36.10
2019-02-27T13:57:49.919Z,36.31
2019-02-27T14:00:21.689Z,37.71
2019-02-27T14:02:50.788Z,35.61
2019-02-27T14:05:19.861Z,36.37
2019-02-27T14:07:48.965Z,36.12
2019-02-27T14:10:20.586Z,37.48
2019-02-27T14:12:48.939Z,36.55
2019-02-27T14:15:18.131Z,36.65
2019-02-27T14:17:47.212Z,36.19
2019-02-27T14:20:17.714Z,34.08
2019-02-27T14:22:46.898Z,35.12
2019-02-27T14:25:18.010Z,34.37
2019-02-27T14:27:48.089Z,32.96
2019-02-27T14:30:19.465Z,31.93
2019-02-27T14:32:48.547Z,33.00
2019-02-27T14:35:17.661Z,33.51
2019-02-27T14:37:49.789Z,32.94
2019-02-27T14:40:18.717Z,32.48
2019-02-27T14:42:47.808Z,33.23
2019-02-27T14:45:18.447Z,34.33
2019-02-27T14:47:48.055Z,34.04
2019-02-27T14:50:18.430Z,33.29
2019-02-27T14:52:47.510Z,33.36
2019-02-27T14:55:16.742Z,31.54
2019-02-27T14:57:50.150Z,31.52
2019-02-27T15:00:27.872Z,33.37
2019-02-27T15:02:56.984Z,33.37
2019-02-27T15:05:26.087Z,32.77
2019-02-27T15:07:55.185Z,31.65
2019-02-27T15:10:24.517Z,30.30
2019-02-27T15:12:55.144Z,30.36
2019-02-27T15:15:26.130Z,29.82
2019-02-27T15:17:55.294Z,30.09
2019-02-27T15:20:25.691Z,31.46
2019-02-27T15:22:54.776Z,31.18
2019-02-27T15:25:24.004Z,31.75
2019-02-27T15:27:53.098Z,30.69
2019-02-27T15:30:25.286Z,29.28
2019-02-27T15:32:54.374Z,28.54
2019-02-27T15:35:23.478Z,29.47
2019-02-27T15:37:52.767Z,29.34
2019-02-27T15:40:23.111Z,29.31
2019-02-27T15:42:52.231Z,30.23
2019-02-27T15:45:21.613Z,29.33
2019-02-27T15:47:50.772Z,30.27
2019-02-27T15:50:22.882Z,30.56
2019-02-27T15:52:51.546Z,28.51
2019-02-27T15:55:20.627Z,26.74
2019-02-27T15:57:53.546Z,28.24
2019-02-27T16:00:21.782Z,28.05
2019-02-27T16:02:50.901Z,28.13
2019-02-27T16:05:19.993Z,28.12
2019-02-27T16:07:49.774Z,26.15
2019-02-27T16:10:20.355Z,25.83
2019-02-27T16:12:49.444Z,25.69
2019-02-27T16:15:18.841Z,25.24
2019-02-27T16:17:47.990Z,25.64
2019-02-27T16:20:17.682Z,24.86
2019-02-27T16:22:46.794Z,24.88
2019-02-27T16:25:19.887Z,23.80
2019-02-27T16:27:48.428Z,22.86
2019-02-27T16:30:23.071Z,22.33
2019-02-27T16:32:52.173Z,21.23
2019-02-27T16:35:22.677Z,20.30
2019-02-27T16:37:56.340Z,19.47
2019-02-27T16:40:22.624Z,18.86
2019-02-27T16:42:51.729Z,18.76
2019-02-27T16:45:23.065Z,18.42
2019-02-27T16:47:54.059Z,18.09
2019-02-27T16:50:24.697Z,17.76
2019-02-27T16:52:54.681Z,17.44
2019-02-27T16:55:24.205Z,16.71
2019-02-27T16:57:56.565Z,16.00
2019-02-27T17:00:26.025Z,15.46
2019-02-27T17:02:56.967Z,15.10
2019-02-27T17:05:27.429Z,14.59
2019-02-27T17:08:00.375Z,14.33
2019-02-27T17:10:29.517Z,14.23
2019-02-27T17:12:58.855Z,14.05
2019-02-27T17:15:34.581Z,13.68
2019-02-27T17:18:00.165Z,13.19
2019-02-27T17:20:29.358Z,12.70
2019-02-27T17:22:58.451Z,12.52
2019-02-27T17:25:29.983Z,12.21
2019-02-27T17:27:58.459Z,12.19
2019-02-27T17:30:36.651Z,11.98
2019-02-27T17:33:04.266Z,11.83
2019-02-27T17:35:33.128Z,11.76
2019-02-27T17:38:02.316Z,11.77
2019-02-27T17:40:36.624Z,11.66
2019-02-27T17:43:02.925Z,11.38
2019-02-27T17:45:32.054Z,11.22
2019-02-27T17:48:01.128Z,11.23
2019-02-27T17:50:31.830Z,11.16
2019-02-27T17:53:01.059Z,11.14
2019-02-27T17:55:30.166Z,11.14
2019-02-27T17:57:59.333Z,11.07
2019-02-27T18:00:40.508Z,10.95
2019-02-27T18:03:09.590Z,10.85
2019-02-27T18:05:39.036Z,10.59
2019-02-27T18:08:08.143Z,10.73
2019-02-27T18:10:38.261Z,10.50
2019-02-27T18:13:07.410Z,10.46
2019-02-27T18:15:36.605Z,10.41
2019-02-27T18:18:07.565Z,10.52
2019-02-27T18:20:36.623Z,10.52
2019-02-27T18:23:05.715Z,10.64
2019-02-27T18:25:34.824Z,10.37
2019-02-27T18:28:03.914Z,10.36
2019-02-27T18:30:33.016Z,10.53
2019-02-27T18:33:02.112Z,10.38
2019-02-27T18:35:31.225Z,10.49
2019-02-27T18:38:00.302Z,10.13
2019-02-27T18:40:29.416Z,10.16
2019-02-27T18:42:58.515Z,10.01
2019-02-27T18:45:27.698Z,9.70
2019-02-27T18:47:58.712Z,9.88
2019-02-27T18:50:27.615Z,9.85
2019-02-27T18:52:56.707Z,9.92
2019-02-27T18:55:30.707Z,10.13
2019-02-27T18:57:58.030Z,9.95
2019-02-27T19:00:28.528Z,9.94
2019-02-27T19:02:57.653Z,9.72
2019-02-27T19:05:27.851Z,9.43
2019-02-27T19:07:56.978Z,9.28
2019-02-27T19:10:26.066Z,9.25
2019-02-27T19:12:55.172Z,9.06
2019-02-27T19:15:24.405Z,9.00
2019-02-27T19:17:53.802Z,8.82
2019-02-27T19:20:25.277Z,8.67
2019-02-27T19:22:54.410Z,8.60
2019-02-27T19:25:23.485Z,8.74
2019-02-27T19:27:52.688Z,8.84
2019-02-27T19:30:21.968Z,8.68
2019-02-27T19:32:51.161Z,8.73
2019-02-27T19:35:22.347Z,8.67
2019-02-27T19:37:51.861Z,8.69
2019-02-27T19:40:20.993Z,8.61
2019-02-27T19:42:58.550Z,8.37
2019-02-27T19:45:28.351Z,8.40
2019-02-27T19:47:57.628Z,8.53
2019-02-27T19:50:27.615Z,8.47
2019-02-27T19:52:57.236Z,8.39
2019-02-27T19:55:27.631Z,8.47
2019-02-27T19:57:56.928Z,8.44
2019-02-27T20:00:27.164Z,8.39
2019-02-27T20:03:01.137Z,8.42
2019-02-27T20:05:28.265Z,8.36
2019-02-27T20:07:58.253Z,8.33
2019-02-27T20:10:30.990Z,8.40
2019-02-27T20:12:59.220Z,8.37
2019-02-27T20:15:28.498Z,8.48
2019-02-27T20:17:57.598Z,8.78
2019-02-27T20:20:26.780Z,9.07
2019-02-27T20:22:56.056Z,9.19
2019-02-27T20:25:25.843Z,9.04
2019-02-27T20:27:57.969Z,9.06
2019-02-27T20:30:25.922Z,9.24
2019-02-27T20:32:55.022Z,9.10
2019-02-27T20:35:24.115Z,9.06
2019-02-27T20:37:53.218Z,9.04
2019-02-27T20:40:22.593Z,8.95
2019-02-27T20:42:54.867Z,8.82
2019-02-27T20:45:22.528Z,8.74
2019-02-27T20:47:51.662Z,8.66
2019-02-27T20:50:34.984Z,8.61
2019-02-27T20:52:58.990Z,8.56
2019-02-27T20:55:30.908Z,8.46
2019-02-27T20:57:58.889Z,8.68
2019-02-27T21:00:27.980Z,8.49
2019-02-27T21:02:57.072Z,8.34
2019-02-27T21:05:26.248Z,8.33
2019-02-27T21:08:00.779Z,8.22
2019-02-27T21:10:29.447Z,8.30
2019-02-27T21:12:59.017Z,8.24
2019-02-27T21:15:29.259Z,8.27
2019-02-27T21:18:00.772Z,8.17
2019-02-27T21:20:32.946Z,8.16
2019-02-27T21:23:02.303Z,8.13
2019-02-27T21:25:32.005Z,8.08
2019-02-27T21:28:06.625Z,7.96
2019-02-27T21:30:33.510Z,7.84
2019-02-27T21:33:03.422Z,7.72
2019-02-27T21:38:08.059Z,7.72
2019-02-27T21:40:37.819Z,7.79
2019-02-27T21:43:07.343Z,7.63
2019-02-27T21:45:38.361Z,7.64
2019-02-27T21:48:07.852Z,7.63
2019-02-27T21:50:39.877Z,7.48
2019-02-27T21:53:09.889Z,7.45
2019-02-27T21:55:40.231Z,7.55
2019-02-27T21:58:19.761Z,7.46
2019-02-27T22:00:40.135Z,7.16
2019-02-27T22:03:09.214Z,7.09
2019-02-27T22:05:42.700Z,7.01
2019-02-27T22:08:09.113Z,7.02
2019-02-27T22:10:38.242Z,7.01
2019-02-27T22:13:10.489Z,6.83
2019-02-27T22:15:38.238Z,6.73
2019-02-27T22:18:08.356Z,6.68
2019-02-27T22:20:38.262Z,6.69
2019-02-27T22:23:07.359Z,6.61
2019-02-27T22:25:36.471Z,6.52
2019-02-27T22:28:05.535Z,6.64
2019-02-27T22:30:34.609Z,6.71
2019-02-27T22:33:03.721Z,6.90
2019-02-27T22:35:37.362Z,6.94
2019-02-27T22:38:05.758Z,6.98
2019-02-27T22:40:37.971Z,7.11
2019-02-27T22:43:05.508Z,7.10
2019-02-27T22:45:36.098Z,7.16
2019-02-27T22:48:05.401Z,7.30
2019-02-27T22:50:34.469Z,7.07
2019-02-27T22:53:03.567Z,7.05
2019-02-27T22:55:32.645Z,6.89
2019-02-27T22:58:01.737Z,6.84
2019-02-27T23:00:56.189Z,6.70
2019-02-27T23:03:25.681Z,6.67
2019-02-27T23:05:54.755Z,6.69
2019-02-27T23:08:24.136Z,6.53
2019-02-27T23:10:53.263Z,6.54
2019-02-27T23:13:22.365Z,6.58
2019-02-27T23:15:52.142Z,6.41
2019-02-27T23:18:21.232Z,6.47
2019-02-27T23:20:52.499Z,6.42
2019-02-27T23:23:21.134Z,6.31
2019-02-27T23:25:50.216Z,6.30
2019-02-27T23:28:19.323Z,6.25
2019-02-27T23:30:48.393Z,6.16
2019-02-27T23:33:17.501Z,6.23
2019-02-27T23:35:47.356Z,6.20
2019-02-27T23:38:17.398Z,6.20
2019-02-27T23:40:49.135Z,6.39
2019-02-27T23:43:17.288Z,6.44
2019-02-27T23:45:46.366Z,6.47
2019-02-27T23:48:15.475Z,7.15
2019-02-27T23:50:44.555Z,7.51
2019-02-27T23:53:15.143Z,8.03
2019-02-27T23:55:45.393Z,8.09
2019-02-27T23:58:14.622Z,8.30
